Time;durP1;ratioP1;P1;durP2;ratioP2;P2;SDS_P1;SDS_P2;PMS_P1;PMS_P2;Temp;Humidity;BMP_temperature;BMP_pressure;BME280_temperature;BME280_humidity;BME280_pressure;Samples;Min_cycle;Max_cycle;Signal;HPM_P1;HPM_P2
2021/03/29 00:00:21;;;;;;;10.73;3.40;;;9.10;51.90;;;;;;5053261;28;20024;-66
2021/03/29 00:02:47;;;;;;;8.38;3.10;;;9.10;51.90;;;;;;5052937;28;20043;-67
2021/03/29 00:05:16;;;;;;;6.07;3.40;;;9.00;51.80;;;;;;5052630;28;20040;-66
2021/03/29 00:07:48;;;;;;;5.32;3.42;;;9.00;52.00;;;;;;5052585;28;20491;-67
2021/03/29 00:10:15;;;;;;;7.47;3.28;;;8.90;52.20;;;;;;5045073;28;20496;-67
2021/03/29 00:12:43;;;;;;;7.25;3.30;;;8.80;52.10;;;;;;5043799;28;20615;-67
2021/03/29 00:15:12;;;;;;;9.93;3.55;;;8.80;52.40;;;;;;5032305;28;20036;-67
2021/03/29 00:17:40;;;;;;;7.13;2.85;;;8.70;52.50;;;;;;5049084;28;20059;-67
2021/03/29 00:20:30;;;;;;;6.72;3.25;;;8.60;52.50;;;;;;5053119;28;20039;-66
2021/03/29 00:22:59;;;;;;;8.90;3.50;;;8.60;52.80;;;;;;5052967;28;20025;-67
2021/03/29 00:25:27;;;;;;;8.32;3.15;;;8.50;52.90;;;;;;5058822;28;20111;-66
2021/03/29 00:27:53;;;;;;;8.80;3.10;;;8.50;53.00;;;;;;5058997;28;20089;-67
2021/03/29 00:30:22;;;;;;;7.35;3.10;;;8.40;53.10;;;;;;5059267;28;20025;-67
2021/03/29 00:32:50;;;;;;;10.75;3.40;;;8.30;53.20;;;;;;5059285;28;20387;-67
2021/03/29 00:35:19;;;;;;;8.95;3.40;;;8.30;53.60;;;;;;5058787;28;20033;-67
2021/03/29 00:37:48;;;;;;;8.93;3.30;;;8.20;53.80;;;;;;5059073;28;20400;-67
2021/03/29 00:40:15;;;;;;;8.55;3.33;;;8.10;53.90;;;;;;5059302;28;20028;-67
2021/03/29 00:42:42;;;;;;;8.55;3.30;;;8.10;54.00;;;;;;5058221;28;20029;-68
2021/03/29 00:45:11;;;;;;;7.85;3.58;;;8.00;54.10;;;;;;5058806;28;20021;-67
2021/03/29 00:47:38;;;;;;;10.05;3.33;;;8.00;54.30;;;;;;5059170;28;20050;-67
2021/03/29 00:50:21;;;;;;;9.82;3.95;;;7.90;54.50;;;;;;5058663;28;20035;-66
2021/03/29 00:52:48;;;;;;;6.93;3.50;;;7.90;54.70;;;;;;5058843;28;20035;-68
2021/03/29 00:55:14;;;;;;;7.65;3.22;;;7.80;54.60;;;;;;5058576;28;20032;-68
2021/03/29 00:57:40;;;;;;;10.15;3.65;;;7.80;54.70;;;;;;5058698;28;20435;-68
2021/03/29 01:00:31;;;;;;;12.30;3.63;;;7.80;54.90;;;;;;5053972;28;20422;-68
2021/03/29 01:02:56;;;;;;;8.98;3.88;;;7.70;55.00;;;;;;5058026;28;20514;-67
2021/03/29 01:05:22;;;;;;;7.38;3.53;;;7.70;55.00;;;;;;5058367;28;20035;-67
2021/03/29 01:07:50;;;;;;;9.55;3.60;;;7.60;55.20;;;;;;5057250;28;20074;-68
2021/03/29 01:10:16;;;;;;;7.70;3.83;;;7.60;55.40;;;;;;5058926;28;20138;-67
2021/03/29 01:12:44;;;;;;;7.50;3.92;;;7.50;55.40;;;;;;5058656;28;20115;-67
2021/03/29 01:15:13;;;;;;;10.95;3.90;;;7.50;55.60;;;;;;5056437;28;20070;-67
2021/03/29 01:17:40;;;;;;;10.63;4.50;;;7.60;55.70;;;;;;5057161;28;20119;-68
2021/03/29 01:20:49;;;;;;;11.82;4.30;;;7.60;55.70;;;;;;5054746;28;20400;-68
2021/03/29 01:23:16;;;;;;;8.57;4.13;;;7.60;55.60;;;;;;5037745;28;20569;-68
2021/03/29 01:25:42;;;;;;;9.88;4.13;;;7.60;55.60;;;;;;5058267;28;20028;-69
2021/03/29 01:28:12;;;;;;;12.43;4.70;;;7.50;55.70;;;;;;5058733;28;20472;-68
2021/03/29 01:30:39;;;;;;;8.80;4.03;;;7.50;55.80;;;;;;5055442;28;20027;-68
2021/03/29 01:33:07;;;;;;;7.85;4.30;;;7.50;55.90;;;;;;5058677;28;20039;-68
2021/03/29 01:35:39;;;;;;;9.15;4.70;;;7.50;56.00;;;;;;5055646;28;20024;-68
2021/03/29 01:38:06;;;;;;;10.77;4.65;;;7.40;56.00;;;;;;5055743;28;20025;-68
2021/03/29 01:40:36;;;;;;;8.45;4.32;;;7.40;56.10;;;;;;5054922;28;20036;-67
2021/03/29 01:43:02;;;;;;;10.98;4.47;;;7.30;56.30;;;;;;5055421;28;20396;-68
2021/03/29 01:45:29;;;;;;;7.10;3.90;;;7.30;56.40;;;;;;5054656;28;20040;-68
2021/03/29 01:47:55;;;;;;;8.98;4.18;;;7.20;56.40;;;;;;5055325;28;20020;-68
2021/03/29 01:50:28;;;;;;;11.57;4.43;;;7.20;56.50;;;;;;5055349;28;20029;-68
2021/03/29 01:52:56;;;;;;;7.35;3.97;;;7.20;56.80;;;;;;5051889;28;20032;-66
2021/03/29 01:55:27;;;;;;;8.95;4.07;;;7.20;56.80;;;;;;5046660;28;20021;-67
2021/03/29 01:57:53;;;;;;;9.57;3.65;;;7.20;56.90;;;;;;5051886;28;20032;-67
2021/03/29 02:00:25;;;;;;;11.25;4.10;;;7.20;56.80;;;;;;5055547;28;20028;-67
2021/03/29 02:02:52;;;;;;;12.20;4.32;;;7.20;57.00;;;;;;5055114;28;20032;-67
2021/03/29 02:05:18;;;;;;;9.88;4.32;;;7.10;56.80;;;;;;5054205;28;20036;-67
2021/03/29 02:07:45;;;;;;;7.88;3.35;;;7.10;57.00;;;;;;5055183;28;20020;-67
2021/03/29 02:10:18;;;;;;;8.63;3.60;;;7.00;57.10;;;;;;5055088;28;20071;-67
2021/03/29 02:12:45;;;;;;;6.80;3.40;;;7.00;57.30;;;;;;5055283;28;20043;-67
2021/03/29 02:15:21;;;;;;;5.53;3.10;;;7.00;57.20;;;;;;5054670;28;20034;-67
2021/03/29 02:17:50;;;;;;;8.32;3.42;;;7.00;57.50;;;;;;5055066;28;20055;-67
2021/03/29 02:20:17;;;;;;;8.60;3.10;;;7.00;57.40;;;;;;5054930;28;20060;-67
2021/03/29 02:22:46;;;;;;;8.75;3.53;;;7.10;57.50;;;;;;5072663;28;20071;-66
2021/03/29 02:25:12;;;;;;;7.82;3.55;;;7.10;57.60;;;;;;5054366;28;20056;-66
2021/03/29 02:27:39;;;;;;;10.30;3.67;;;7.20;57.50;;;;;;5054849;28;20025;-68
2021/03/29 02:30:17;;;;;;;8.90;4.50;;;7.20;57.50;;;;;;5044194;28;20024;-67
2021/03/29 02:32:44;;;;;;;8.27;3.70;;;7.20;57.50;;;;;;5049906;28;20396;-67
2021/03/29 02:35:12;;;;;;;5.55;3.50;;;7.20;57.50;;;;;;5053877;28;20510;-67
2021/03/29 02:37:47;;;;;;;11.95;4.22;;;7.30;57.70;;;;;;5054373;28;20052;-67
2021/03/29 02:40:14;;;;;;;10.23;3.92;;;7.20;57.60;;;;;;5054354;28;20056;-67
2021/03/29 02:42:41;;;;;;;9.25;4.57;;;7.20;57.50;;;;;;5055042;28;20032;-66
2021/03/29 02:45:10;;;;;;;11.23;4.30;;;7.10;57.60;;;;;;5054441;28;20090;-68
2021/03/29 02:47:41;;;;;;;8.43;4.65;;;7.10;57.80;;;;;;5053577;28;20600;-68
2021/03/29 02:50:17;;;;;;;9.70;4.57;;;7.00;57.90;;;;;;5054355;28;20108;-67
2021/03/29 02:52:46;;;;;;;8.43;4.93;;;7.00;58.00;;;;;;5054311;28;20063;-67
2021/03/29 02:55:13;;;;;;;8.95;4.85;;;6.90;58.00;;;;;;5053586;28;20183;-67
2021/03/29 02:57:43;;;;;;;7.68;4.35;;;6.90;58.10;;;;;;5042838;28;20437;-68
2021/03/29 03:00:19;;;;;;;9.73;4.75;;;6.90;58.20;;;;;;5053747;28;20070;-69
2021/03/29 03:02:46;;;;;;;10.20;5.30;;;6.90;58.30;;;;;;5054315;28;20085;-67
2021/03/29 03:05:13;;;;;;;13.18;5.45;;;6.90;58.20;;;;;;5051368;28;20065;-68
2021/03/29 03:07:40;;;;;;;13.65;5.30;;;6.80;58.10;;;;;;5053286;28;20024;-67
2021/03/29 03:10:14;;;;;;;10.57;4.57;;;6.70;58.20;;;;;;5054221;28;20024;-68
2021/03/29 03:12:48;;;;;;;10.63;5.55;;;6.60;58.60;;;;;;5053503;28;20101;-67
2021/03/29 03:15:17;;;;;;;12.50;5.28;;;6.50;58.70;;;;;;5053310;28;20036;-67
2021/03/29 03:17:45;;;;;;;12.27;5.20;;;6.40;58.70;;;;;;5053677;28;20034;-67
2021/03/29 03:20:12;;;;;;;10.07;5.15;;;6.40;58.90;;;;;;5054025;28;20508;-66
2021/03/29 03:22:58;;;;;;;10.32;4.60;;;6.40;59.00;;;;;;5053169;28;20032;-67
2021/03/29 03:25:29;;;;;;;12.00;6.10;;;6.40;59.30;;;;;;5053276;28;20021;-67
2021/03/29 03:27:57;;;;;;;10.55;5.43;;;6.40;59.20;;;;;;5053192;28;20027;-67
2021/03/29 03:30:26;;;;;;;13.75;5.50;;;6.40;59.00;;;;;;5053500;28;20017;-67
2021/03/29 03:32:52;;;;;;;12.57;5.45;;;6.40;59.00;;;;;;5053126;28;20039;-67
2021/03/29 03:35:20;;;;;;;12.32;5.85;;;6.30;59.10;;;;;;5052458;28;20029;-67
2021/03/29 03:37:54;;;;;;;11.68;5.88;;;6.20;59.10;;;;;;5053854;28;20039;-66
2021/03/29 03:40:21;;;;;;;13.27;6.55;;;6.10;59.40;;;;;;5053705;28;20035;-67
2021/03/29 03:42:50;;;;;;;15.73;6.43;;;6.00;59.60;;;;;;5053459;28;20028;-66
2021/03/29 03:45:20;;;;;;;13.02;6.93;;;5.90;59.70;;;;;;5052577;28;20124;-67
2021/03/29 03:47:46;;;;;;;13.43;6.70;;;5.80;60.00;;;;;;5053334;28;20062;-67
2021/03/29 03:50:14;;;;;;;11.85;5.70;;;5.70;60.10;;;;;;5050305;28;20032;-67
2021/03/29 03:52:41;;;;;;;13.80;6.78;;;5.70;60.20;;;;;;5053488;28;20429;-67
2021/03/29 03:55:14;;;;;;;16.65;6.40;;;5.70;60.40;;;;;;5044618;28;20477;-66
2021/03/29 04:00:11;;;;;;;13.40;5.90;;;5.60;60.70;;;;;;5048144;28;20060;-88
2021/03/29 04:02:37;;;;;;;14.43;6.68;;;5.60;61.10;;;;;;5033892;28;20028;-87
2021/03/29 04:05:11;;;;;;;16.08;6.43;;;5.60;61.00;;;;;;5033784;28;20036;-88
2021/03/29 04:07:36;;;;;;;13.82;6.57;;;5.60;61.10;;;;;;5033701;28;20036;-87
2021/03/29 04:12:58;;;;;;;9.30;6.18;;;5.60;61.10;;;;;;5040964;28;20020;-88
2021/03/29 04:15:24;;;;;;;12.45;6.53;;;5.70;61.00;;;;;;5055634;28;20021;-87
2021/03/29 04:17:49;;;;;;;12.82;6.70;;;5.70;61.20;;;;;;5046678;28;20032;-88
2021/03/29 04:20:17;;;;;;;14.85;6.10;;;5.60;61.10;;;;;;5053897;28;20026;-88
2021/03/29 04:22:42;;;;;;;13.07;6.50;;;5.60;61.30;;;;;;5063555;28;20148;-87
2021/03/29 04:25:13;;;;;;;11.77;6.28;;;5.60;61.30;;;;;;5055156;28;20021;-87
2021/03/29 04:27:39;;;;;;;12.68;5.80;;;5.60;61.50;;;;;;5054421;28;20046;-88
2021/03/29 04:30:07;;;;;;;12.55;6.10;;;5.60;61.40;;;;;;5053302;28;20017;-88
2021/03/29 04:32:32;;;;;;;16.10;6.13;;;5.70;61.50;;;;;;5053676;28;20453;-89
2021/03/29 04:34:58;;;;;;;13.48;6.15;;;5.70;61.40;;;;;;5052739;28;20024;-88
2021/03/29 04:37:24;;;;;;;13.20;6.65;;;5.60;61.50;;;;;;5053956;28;20028;-88
2021/03/29 04:39:49;;;;;;;11.77;6.40;;;5.60;61.40;;;;;;5053529;28;20412;-87
2021/03/29 04:42:15;;;;;;;14.15;6.80;;;5.60;61.50;;;;;;5053862;28;20020;-88
2021/03/29 04:44:40;;;;;;;15.52;7.47;;;5.60;61.50;;;;;;5053469;28;20454;-87
2021/03/29 04:47:06;;;;;;;13.82;7.07;;;5.50;61.50;;;;;;5053796;28;20032;-88
2021/03/29 04:49:32;;;;;;;13.70;7.13;;;5.60;61.70;;;;;;5053315;28;20033;-87
2021/03/29 04:51:57;;;;;;;13.25;6.43;;;5.50;61.70;;;;;;5053517;28;20028;-88
2021/03/29 04:54:23;;;;;;;11.35;6.30;;;5.50;61.80;;;;;;5055978;28;20024;-87
2021/03/29 04:56:48;;;;;;;11.15;6.10;;;5.50;61.80;;;;;;5053853;28;20070;-88
2021/03/29 04:59:14;;;;;;;12.10;6.13;;;5.60;61.90;;;;;;5052732;28;20036;-87
2021/03/29 05:01:40;;;;;;;14.15;5.75;;;5.60;61.80;;;;;;5045410;28;20028;-88
2021/03/29 05:04:06;;;;;;;12.13;6.43;;;5.60;61.70;;;;;;5049455;28;20029;-87
2021/03/29 05:06:32;;;;;;;13.57;6.28;;;5.50;61.80;;;;;;5053944;28;20070;-87
2021/03/29 05:08:58;;;;;;;12.40;5.90;;;5.60;61.90;;;;;;5071515;28;20494;-88
2021/03/29 05:11:25;;;;;;;10.55;5.88;;;5.60;61.90;;;;;;5061038;28;20063;-89
2021/03/29 05:13:50;;;;;;;13.65;6.13;;;5.60;61.80;;;;;;5062041;28;20040;-89
2021/03/29 05:16:16;;;;;;;10.57;6.03;;;5.70;61.90;;;;;;5061621;28;20029;-88
2021/03/29 05:18:42;;;;;;;11.18;5.57;;;5.70;61.90;;;;;;5075211;28;20402;-89
2021/03/29 05:21:07;;;;;;;11.43;5.20;;;5.70;61.70;;;;;;5069077;28;20454;-89
2021/03/29 05:23:33;;;;;;;9.32;5.47;;;5.80;61.70;;;;;;5077404;28;20027;-89
2021/03/29 05:25:58;;;;;;;9.00;4.88;;;5.80;61.60;;;;;;5056168;28;20546;-89
2021/03/29 05:28:24;;;;;;;10.18;5.10;;;5.80;61.60;;;;;;5056554;28;20021;-88
2021/03/29 05:30:49;;;;;;;9.85;5.47;;;5.90;61.60;;;;;;5056444;28;20028;-88
2021/03/29 05:33:15;;;;;;;9.43;5.45;;;5.90;61.50;;;;;;5061141;28;20119;-89
2021/03/29 05:35:41;;;;;;;10.68;4.75;;;5.90;61.50;;;;;;5061132;28;20047;-89
2021/03/29 05:38:06;;;;;;;8.25;4.18;;;5.90;61.60;;;;;;5058642;28;20028;-89
2021/03/29 05:40:32;;;;;;;9.63;4.05;;;5.90;61.60;;;;;;5059610;28;20486;-89
2021/03/29 05:42:58;;;;;;;5.90;3.72;;;5.90;61.70;;;;;;5064306;28;20067;-89
2021/03/29 05:45:29;;;;;;;8.85;3.42;;;6.00;61.80;;;;;;5067470;28;20063;-89
2021/03/29 05:47:55;;;;;;;8.20;3.92;;;6.10;62.50;;;;;;5057100;28;20073;-88
2021/03/29 05:50:21;;;;;;;5.35;2.50;;;6.20;61.80;;;;;;5081402;28;20110;-89
2021/03/29 05:52:46;;;;;;;3.72;2.83;;;6.30;61.70;;;;;;5059854;28;20127;-89
2021/03/29 05:55:18;;;;;;;4.68;2.33;;;6.20;61.20;;;;;;5073991;28;20051;-90
2021/03/29 06:00:41;;;;;;;5.13;2.38;;;6.20;61.30;;;;;;5084972;28;20279;-89
2021/03/29 06:03:30;;;;;;;3.85;2.47;;;6.20;61.60;;;;;;5052082;28;20024;-87
2021/03/29 06:06:00;;;;;;;7.55;2.60;;;6.30;61.70;;;;;;5057494;28;20021;-87
2021/03/29 06:08:27;;;;;;;5.05;2.33;;;6.40;61.50;;;;;;5058478;28;20079;-86
2021/03/29 06:10:54;;;;;;;4.10;2.20;;;6.50;61.50;;;;;;5055209;28;20081;-87
2021/03/29 06:13:31;;;;;;;3.58;2.50;;;6.50;61.60;;;;;;5043912;28;20031;-87
2021/03/29 06:16:08;;;;;;;7.07;2.45;;;6.60;61.70;;;;;;5071721;28;20028;-87
2021/03/29 06:18:36;;;;;;;6.30;3.17;;;6.70;61.70;;;;;;5058473;28;20032;-87
2021/03/29 06:21:10;;;;;;;4.70;2.60;;;6.80;61.50;;;;;;5081314;28;20017;-88
2021/03/29 06:23:37;;;;;;;7.32;2.63;;;6.80;61.40;;;;;;5066001;28;20067;-88
2021/03/29 06:26:24;;;;;;;6.68;2.58;;;6.80;61.40;;;;;;5056523;28;20085;-88
2021/03/29 06:28:50;;;;;;;4.45;2.53;;;6.90;61.60;;;;;;5056492;28;20376;-87
2021/03/29 06:31:21;;;;;;;6.32;2.42;;;6.90;61.50;;;;;;5048272;28;20020;-88
2021/03/29 06:33:48;;;;;;;7.95;4.32;;;7.10;61.70;;;;;;5057981;28;20029;-88
2021/03/29 06:36:31;;;;;;;5.63;2.83;;;7.20;61.60;;;;;;5056668;28;20115;-87
2021/03/29 06:39:17;;;;;;;7.75;2.75;;;7.30;61.50;;;;;;5056757;28;20028;-86
2021/03/29 06:41:53;;;;;;;6.82;3.30;;;7.30;61.10;;;;;;5056420;28;20020;-88
2021/03/29 06:44:33;;;;;;;6.97;3.20;;;7.30;61.20;;;;;;5055907;28;20024;-87
2021/03/29 06:47:14;;;;;;;6.28;3.22;;;7.30;61.30;;;;;;5056102;28;20378;-87
2021/03/29 06:49:47;;;;;;;10.82;4.75;;;7.30;61.50;;;;;;5056155;28;20020;-87
2021/03/29 06:52:38;;;;;;;;;;;7.30;61.90;;;;;;5056540;28;20056;-87
2021/03/29 06:55:23;;;;;;;7.45;3.85;;;7.30;60.70;;;;;;5052881;28;20373;-87
2021/03/29 06:58:08;;;;;;;7.32;4.40;;;7.50;61.10;;;;;;5055355;28;20234;-87
2021/03/29 07:00:37;;;;;;;8.52;4.60;;;7.60;61.10;;;;;;5051852;28;20030;-87
2021/03/29 07:03:05;;;;;;;9.02;4.80;;;7.60;60.80;;;;;;5055788;28;20029;-87
2021/03/29 07:05:31;;;;;;;9.88;4.93;;;7.60;60.80;;;;;;5073365;28;20390;-87
2021/03/29 07:08:01;;;;;;;7.53;4.38;;;7.60;60.90;;;;;;5055346;28;20107;-87
2021/03/29 07:10:28;;;;;;;9.57;4.93;;;7.60;61.10;;;;;;5073962;28;20021;-87
2021/03/29 07:12:54;;;;;;;11.77;4.95;;;7.70;61.10;;;;;;5045399;28;20033;-88
2021/03/29 07:15:21;;;;;;;7.80;4.60;;;7.70;61.10;;;;;;5035270;28;20505;-87
2021/03/29 07:17:48;;;;;;;9.73;4.35;;;7.60;61.10;;;;;;5051451;28;20123;-89
2021/03/29 07:20:15;;;;;;;11.43;4.78;;;7.70;61.30;;;;;;5056035;28;20081;-87
2021/03/29 07:22:43;;;;;;;7.13;3.70;;;7.70;61.20;;;;;;5055103;28;20498;-87
2021/03/29 07:25:15;;;;;;;9.32;3.80;;;7.70;61.20;;;;;;5055142;28;20543;-87
2021/03/29 07:27:51;;;;;;;7.57;3.35;;;7.80;61.20;;;;;;5054794;28;20363;-87
2021/03/29 07:30:19;;;;;;;7.22;3.60;;;7.90;61.00;;;;;;5055084;28;20031;-87
2021/03/29 07:32:58;;;;;;;6.00;3.10;;;8.00;60.70;;;;;;5054169;28;20036;-88
2021/03/29 07:36:02;;;;;;;10.10;3.55;;;8.10;61.30;;;;;;5071879;28;20020;-87
2021/03/29 07:38:55;;;;;;;8.45;3.47;;;8.20;60.60;;;;;;5054843;28;20063;-87
2021/03/29 07:41:20;;;;;;;6.78;3.20;;;8.40;60.50;;;;;;5057176;28;20020;-87
2021/03/29 07:44:08;;;;;;;8.15;3.80;;;8.40;60.10;;;;;;5057546;28;20382;-87
2021/03/29 07:46:38;;;;;;;8.73;3.30;;;8.90;59.80;;;;;;5055481;28;20405;-88
2021/03/29 07:49:04;;;;;;;7.53;2.92;;;9.40;59.10;;;;;;5055279;28;20040;-88
2021/03/29 07:51:29;;;;;;;7.32;2.90;;;9.80;58.60;;;;;;5055115;28;20028;-87
2021/03/29 07:54:00;;;;;;;15.98;2.95;;;10.40;58.20;;;;;;5055340;28;20119;-88
2021/03/29 07:56:35;;;;;;;5.72;2.25;;;10.90;57.70;;;;;;5055555;28;20119;-87
2021/03/29 07:59:06;;;;;;;3.85;2.17;;;11.50;57.40;;;;;;5056098;28;20190;-88
2021/03/29 08:02:00;;;;;;;5.13;2.10;;;11.90;56.60;;;;;;5058285;28;20032;-90
2021/03/29 08:05:06;;;;;;;4.45;1.98;;;11.90;56.40;;;;;;5051314;28;20029;-89
2021/03/29 08:07:37;;;;;;;2.80;1.85;;;12.00;56.00;;;;;;5065984;28;20509;-87
2021/03/29 08:10:04;;;;;;;5.20;1.98;;;12.10;55.70;;;;;;5055257;28;20038;-88
2021/03/29 08:12:31;;;;;;;5.47;2.22;;;12.20;55.20;;;;;;5061357;28;20029;-87
2021/03/29 08:14:57;;;;;;;4.57;2.80;;;12.40;54.60;;;;;;5051207;28;20111;-88
2021/03/29 08:17:52;;;;;;;4.90;2.45;;;12.90;54.40;;;;;;5068985;28;20083;-88
2021/03/29 08:20:43;;;;;;;5.72;2.30;;;13.20;53.30;;;;;;5054907;28;20028;-88
2021/03/29 08:23:35;;;;;;;8.05;3.45;;;13.50;52.90;;;;;;5035090;28;20391;-87
2021/03/29 08:26:19;;;;;;;9.13;4.07;;;14.30;52.30;;;;;;5043140;28;20027;-88
2021/03/29 08:29:07;;;;;;;5.07;2.40;;;15.10;51.50;;;;;;5053792;28;20074;-89
2021/03/29 08:32:03;;;;;;;13.23;4.32;;;16.10;50.50;;;;;;5049884;28;20031;-89
2021/03/29 08:34:31;;;;;;;5.32;2.40;;;16.70;48.80;;;;;;5054193;28;20082;-89
2021/03/29 08:37:06;;;;;;;6.07;2.60;;;17.30;47.50;;;;;;5053784;28;20032;-88
2021/03/29 08:39:34;;;;;;;9.13;4.25;;;17.70;46.80;;;;;;5054061;28;20108;-88
2021/03/29 08:42:01;;;;;;;9.13;3.25;;;18.20;46.70;;;;;;5054146;28;20025;-88
2021/03/29 08:44:28;;;;;;;9.07;3.70;;;18.70;46.00;;;;;;5055049;28;20502;-89
2021/03/29 08:46:55;;;;;;;5.50;2.13;;;19.10;45.30;;;;;;5058163;28;20033;-87
2021/03/29 08:49:20;;;;;;;6.38;3.03;;;19.50;44.40;;;;;;5058117;28;20020;-88
2021/03/29 08:51:48;;;;;;;7.57;1.88;;;19.80;43.80;;;;;;5058009;28;20191;-88
2021/03/29 08:54:14;;;;;;;4.93;1.90;;;20.30;43.20;;;;;;5057563;28;20039;-88
2021/03/29 08:56:44;;;;;;;6.72;1.73;;;20.50;40.90;;;;;;5057817;28;20071;-87
2021/03/29 08:59:11;;;;;;;5.70;1.63;;;20.50;40.00;;;;;;5057562;28;20116;-88
2021/03/29 09:01:40;;;;;;;4.13;1.50;;;20.60;40.30;;;;;;5057817;28;20123;-88
2021/03/29 09:04:07;;;;;;;7.18;1.48;;;20.90;39.60;;;;;;5057194;28;20020;-89
2021/03/29 09:06:33;;;;;;;7.45;1.83;;;21.00;39.10;;;;;;5057861;28;20028;-88
2021/03/29 09:09:10;;;;;;;7.68;2.10;;;21.10;38.90;;;;;;5057438;28;20017;-89
2021/03/29 09:11:43;;;;;;;7.43;2.10;;;21.30;38.50;;;;;;5067346;28;20031;-90
2021/03/29 09:14:11;;;;;;;4.85;1.75;;;21.60;37.70;;;;;;5044424;28;20043;-89
2021/03/29 09:16:38;;;;;;;4.03;1.55;;;21.80;37.20;;;;;;5075657;28;20081;-89
2021/03/29 09:19:21;;;;;;;5.68;1.67;;;21.90;35.80;;;;;;5057340;28;20021;-89
2021/03/29 09:21:59;;;;;;;4.30;1.50;;;21.90;36.50;;;;;;5057577;28;20446;-89
2021/03/29 09:24:28;;;;;;;8.57;2.10;;;22.10;36.70;;;;;;5057435;28;20078;-89
2021/03/29 09:27:11;;;;;;;4.47;1.40;;;22.50;36.30;;;;;;5057232;28;20023;-89
2021/03/29 09:29:40;;;;;;;4.25;1.35;;;22.60;35.90;;;;;;5055728;28;20514;-89
2021/03/29 09:32:12;;;;;;;3.13;1.35;;;22.70;36.30;;;;;;5057217;28;20021;-88
2021/03/29 09:34:38;;;;;;;4.85;1.50;;;22.80;36.20;;;;;;5057077;28;20490;-90
2021/03/29 09:37:19;;;;;;;4.70;1.25;;;23.10;36.40;;;;;;5055396;28;20033;-88
2021/03/29 09:39:45;;;;;;;7.97;1.52;;;22.90;35.80;;;;;;5054205;28;20028;-89
2021/03/29 09:42:14;;;;;;;3.88;1.27;;;22.80;35.90;;;;;;5056978;28;20111;-91
2021/03/29 09:44:40;;;;;;;5.40;1.33;;;22.60;35.90;;;;;;5053276;28;20028;-89
2021/03/29 09:47:06;;;;;;;4.93;1.15;;;22.40;36.40;;;;;;5073651;28;20626;-89
2021/03/29 09:49:31;;;;;;;4.00;1.15;;;22.10;35.50;;;;;;5056985;28;20051;-88
2021/03/29 09:52:05;;;;;;;4.32;1.33;;;21.70;35.00;;;;;;5056285;28;20032;-89
2021/03/29 09:54:33;;;;;;;4.25;1.30;;;21.40;35.70;;;;;;5056754;28;20042;-89
2021/03/29 09:57:12;;;;;;;4.55;1.20;;;21.20;35.80;;;;;;5073955;28;20032;-89
2021/03/29 09:59:40;;;;;;;3.00;0.80;;;20.90;36.20;;;;;;5055963;28;20083;-89
2021/03/29 10:02:14;;;;;;;3.58;1.30;;;20.60;36.50;;;;;;5051542;28;20028;-88
2021/03/29 10:04:41;;;;;;;15.20;1.98;;;20.30;37.00;;;;;;5054941;28;20405;-88
2021/03/29 10:07:16;;;;;;;2.53;1.00;;;20.10;37.70;;;;;;5075432;28;20100;-88
2021/03/29 10:09:47;;;;;;;4.10;1.17;;;20.20;38.30;;;;;;5070310;28;20471;-88
2021/03/29 10:12:23;;;;;;;4.15;1.30;;;20.30;38.20;;;;;;5059148;28;20070;-89
2021/03/29 10:14:49;;;;;;;2.40;1.20;;;20.50;38.60;;;;;;5056503;28;20115;-89
2021/03/29 10:17:17;;;;;;;5.50;1.13;;;20.50;37.00;;;;;;5056438;28;20056;-89
2021/03/29 10:19:43;;;;;;;5.38;1.52;;;20.40;38.70;;;;;;5056610;28;20355;-89
2021/03/29 10:22:17;;;;;;;4.90;1.45;;;20.30;37.60;;;;;;5074343;28;20029;-89
2021/03/29 10:25:05;;;;;;;4.45;1.20;;;20.20;37.90;;;;;;5057438;28;20024;-89
2021/03/29 10:27:41;;;;;;;6.50;1.40;;;20.10;38.40;;;;;;5077141;28;20513;-87
2021/03/29 10:30:09;;;;;;;3.97;1.17;;;20.10;38.20;;;;;;5062147;28;20019;-87
2021/03/29 10:32:35;;;;;;;6.35;1.60;;;20.10;38.30;;;;;;5059345;28;20065;-87
2021/03/29 10:35:01;;;;;;;6.95;2.90;;;20.20;38.10;;;;;;5059695;28;20470;-87
2021/03/29 10:37:32;;;;;;;5.65;1.50;;;20.40;38.70;;;;;;5057398;28;20107;-87
2021/03/29 10:39:59;;;;;;;16.90;10.13;;;20.40;36.30;;;;;;5074525;28;20035;-87
2021/03/29 10:42:27;;;;;;;12.63;7.63;;;20.30;36.80;;;;;;5056938;28;20035;-87
2021/03/29 10:44:54;;;;;;;10.65;5.32;;;20.20;36.50;;;;;;5056179;28;20024;-87
2021/03/29 10:47:22;;;;;;;3.67;1.10;;;20.20;36.30;;;;;;5075507;28;20177;-88
2021/03/29 10:49:48;;;;;;;3.03;1.60;;;20.20;37.00;;;;;;5056451;28;20044;-87
2021/03/29 10:52:13;;;;;;;3.65;1.27;;;20.10;36.60;;;;;;5056121;28;20055;-88
2021/03/29 10:54:39;;;;;;;4.68;1.55;;;20.00;37.50;;;;;;5056579;28;20029;-88
2021/03/29 10:57:05;;;;;;;2.92;1.10;;;20.10;37.10;;;;;;5056260;28;20025;-88
2021/03/29 10:59:31;;;;;;;4.18;1.10;;;20.20;37.40;;;;;;5062374;28;20033;-87
2021/03/29 11:01:57;;;;;;;6.38;1.60;;;20.20;36.30;;;;;;5065438;28;20039;-88
2021/03/29 11:04:23;;;;;;;3.10;1.30;;;20.10;36.20;;;;;;5079289;28;20031;-88
2021/03/29 11:06:49;;;;;;;4.80;1.40;;;20.20;36.90;;;;;;5059725;28;20021;-88
2021/03/29 11:09:15;;;;;;;6.78;1.50;;;20.20;36.00;;;;;;5057420;28;20040;-88
2021/03/29 11:11:40;;;;;;;4.32;1.45;;;20.20;36.40;;;;;;5059201;28;20028;-88
2021/03/29 11:14:06;;;;;;;4.28;1.50;;;20.40;37.10;;;;;;5056041;28;20029;-88
2021/03/29 11:16:32;;;;;;;2.50;0.82;;;20.60;36.90;;;;;;5055855;28;20033;-88
2021/03/29 11:18:58;;;;;;;3.35;1.10;;;20.70;35.70;;;;;;5055066;28;20475;-88
2021/03/29 11:21:25;;;;;;;4.35;1.35;;;20.70;36.00;;;;;;5054878;28;20564;-87
2021/03/29 11:23:50;;;;;;;2.67;1.05;;;20.90;35.30;;;;;;5056925;28;20044;-88
2021/03/29 11:26:16;;;;;;;2.67;1.30;;;20.90;34.90;;;;;;5056587;28;20025;-88
2021/03/29 11:28:42;;;;;;;5.05;1.23;;;20.80;34.50;;;;;;5056741;28;20039;-88
2021/03/29 11:31:07;;;;;;;4.55;1.08;;;20.80;34.70;;;;;;5056530;28;20019;-88
2021/03/29 11:33:33;;;;;;;4.82;1.30;;;20.90;34.70;;;;;;5054276;28;20020;-87
2021/03/29 11:35:59;;;;;;;3.28;1.30;;;20.80;34.50;;;;;;5057180;28;20481;-88
2021/03/29 11:38:28;;;;;;;5.10;1.10;;;20.90;35.40;;;;;;5056219;28;20035;-88
2021/03/29 11:40:54;;;;;;;3.70;1.40;;;21.10;35.00;;;;;;5055622;28;20554;-88
2021/03/29 11:43:20;;;;;;;3.38;1.15;;;21.20;34.60;;;;;;5054900;28;20039;-87
2021/03/29 11:45:46;;;;;;;2.10;0.90;;;21.20;34.40;;;;;;5055211;28;20174;-88
2021/03/29 11:48:12;;;;;;;7.32;1.40;;;21.20;34.60;;;;;;5055247;28;20506;-87
2021/03/29 11:50:37;;;;;;;1.88;1.10;;;21.20;33.30;;;;;;5055871;28;20028;-88
2021/03/29 11:53:03;;;;;;;4.32;1.10;;;21.10;34.10;;;;;;5073693;28;20074;-88
2021/03/29 11:55:28;;;;;;;2.15;1.02;;;21.10;32.40;;;;;;5054494;28;20027;-88
2021/03/29 11:57:55;;;;;;;2.95;1.05;;;21.10;32.90;;;;;;5054693;28;20078;-88
2021/03/29 12:00:48;;;;;;;3.75;1.20;;;21.00;32.80;;;;;;5048415;28;20033;-88
2021/03/29 12:03:21;;;;;;;4.35;1.25;;;21.00;33.90;;;;;;5054434;28;20039;-88
2021/03/29 12:05:49;;;;;;;4.80;1.58;;;21.00;34.00;;;;;;5073152;28;20070;-88
2021/03/29 12:13:43;;;;;;;1.63;0.93;;;21.60;34.90;;;;;;5089397;28;20039;-87
2021/03/29 12:16:10;;;;;;;4.30;1.20;;;21.70;33.90;;;;;;5072538;28;20035;-87
2021/03/29 12:18:42;;;;;;;5.07;1.30;;;21.70;33.60;;;;;;5054780;28;20021;-87
2021/03/29 12:21:17;;;;;;;4.22;1.25;;;21.70;33.60;;;;;;5054915;28;20024;-86
2021/03/29 12:23:45;;;;;;;4.65;1.20;;;21.70;32.20;;;;;;5039106;28;20036;-87
2021/03/29 12:26:11;;;;;;;4.63;1.15;;;21.60;33.10;;;;;;5054569;28;20017;-87
2021/03/29 12:28:43;;;;;;;7.53;1.40;;;21.60;32.90;;;;;;5054484;28;20027;-87
2021/03/29 12:31:09;;;;;;;2.87;1.13;;;21.60;32.30;;;;;;5046206;28;20025;-87
2021/03/29 12:33:35;;;;;;;3.50;1.20;;;21.60;32.50;;;;;;5037691;28;20554;-87
2021/03/29 12:36:01;;;;;;;3.75;1.10;;;21.70;32.90;;;;;;5055163;28;20033;-87
2021/03/29 12:38:31;;;;;;;2.05;1.13;;;21.80;30.30;;;;;;5072638;28;20475;-87
2021/03/29 12:41:00;;;;;;;3.30;1.08;;;21.70;31.20;;;;;;5054524;28;20122;-87
2021/03/29 12:44:01;;;;;;;2.95;1.20;;;21.80;32.30;;;;;;5054661;28;20036;-86
2021/03/29 12:46:19;;;;;;;4.78;1.20;;;22.00;31.80;;;;;;5061814;28;20028;-86
2021/03/29 12:48:45;;;;;;;6.13;1.77;;;22.00;29.20;;;;;;5055251;28;20103;-87
2021/03/29 12:51:13;;;;;;;5.68;1.10;;;21.80;29.50;;;;;;5054103;28;20490;-86
2021/03/29 12:53:39;;;;;;;3.10;1.23;;;21.90;30.50;;;;;;5054448;28;20088;-86
2021/03/29 12:56:05;;;;;;;4.07;1.02;;;22.00;30.50;;;;;;5055847;28;20029;-86
2021/03/29 12:58:35;;;;;;;6.80;1.30;;;22.10;30.70;;;;;;5057441;28;20033;-87
2021/03/29 13:01:13;;;;;;;3.10;1.15;;;22.40;30.00;;;;;;5054035;28;20028;-86
2021/03/29 13:03:44;;;;;;;3.88;1.40;;;22.50;30.20;;;;;;5053171;28;20047;-86
2021/03/29 13:06:23;;;;;;;2.33;1.10;;;22.60;30.40;;;;;;5053370;28;20556;-86
2021/03/29 13:08:50;;;;;;;4.65;0.95;;;22.70;30.20;;;;;;5053420;28;20151;-87
2021/03/29 13:13:46;;;;;;;4.55;1.20;;;22.90;30.70;;;;;;5071777;28;20505;-87
2021/03/29 13:16:12;;;;;;;4.65;1.30;;;23.00;31.20;;;;;;5053057;28;20036;-86
2021/03/29 13:18:37;;;;;;;2.85;1.05;;;23.20;31.40;;;;;;5053537;28;20021;-86
2021/03/29 13:21:03;;;;;;;4.90;1.40;;;23.40;30.10;;;;;;5053727;28;20554;-87